Date,TemperatureHighF,TemperatureAvgF,TemperatureLowF,DewpointHighF,DewpointAvgF,DewpointLowF,HumidityHigh,HumidityAvg,HumidityLow,PressureMaxIn,PressureMinIn,WindSpeedMaxMPH,WindSpeedAvgMPH,GustSpeedMaxMPH,PrecipitationSumIn
2013-6-1,68.0,58.7,52.3,52.9,49.6,45.6,83,72,49,29.97,29.81,11,4,0,0.00
2013-6-2,63.9,57.3,53.2,51.4,49.5,47.3,87,76,57,29.82,29.76,15,5,0,0.00
2013-6-3,62.1,56.9,53.1,50.6,49.1,47.1,89,76,58,29.91,29.79,11,4,0,0.00
2013-6-4,63.5,57.6,52.0,51.3,49.5,47.3,84,75,62,30.00,29.89,11,4,0,0.00
2013-6-5,60.1,56.1,51.6,50.4,49.2,47.4,86,78,68,30.03,29.97,17,6,0,0.00
2013-6-6,59.2,55.8,53.4,50.9,49.6,48.4,88,80,70,29.99,29.92,13,5,0,0.00
2013-6-7,62.6,55.0,52.3,52.1,50.4,49.5,90,85,67,29.94,29.80,20,4,0,0.00
2013-6-8,60.1,56.0,51.4,54.4,51.9,48.9,92,86,77,29.89,29.80,13,4,0,0.00
2013-6-9,62.2,59.2,56.5,54.8,53.3,50.8,91,81,70,29.94,29.86,10,4,0,0.00
2013-6-10,65.8,60.7,57.6,52.7,50.6,48.7,82,70,55,29.99,29.89,13,4,0,0.00
2013-6-11,72.7,60.5,56.5,53.5,51.9,50.3,85,74,50,30.01,29.91,13,5,0,0.00
2013-6-12,70.9,59.6,52.2,53.8,48.6,38.9,88,69,32,30.05,29.94,11,4,0,0.00
2013-6-13,72.5,59.5,48.2,53.2,47.5,41.8,82,66,39,30.12,30.01,10,4,0,0.00
2013-6-14,80.4,62.0,50.9,52.3,48.2,43.0,82,64,27,30.02,29.83,17,6,0,0.00
2013-6-15,63.7,56.6,52.7,51.6,49.6,47.4,88,78,61,30.05,29.88,18,5,0,0.00
2013-6-16,66.2,58.9,54.0,55.7,50.6,47.1,85,74,54,30.11,30.04,14,4,0,0.00
2013-6-17,82.0,63.4,52.5,56.1,50.7,46.9,84,66,32,30.12,30.03,19,7,0,0.00
2013-6-18,74.3,63.1,55.8,53.0,47.2,41.1,86,59,33,30.07,30.01,19,7,0,0.00
2013-6-19,78.6,64.0,54.3,49.4,44.9,38.7,73,52,28,30.07,29.99,17,8,0,0.00
2013-6-20,79.9,61.3,50.7,51.9,45.3,34.9,78,58,20,30.03,29.96,20,5,0,0.00
2013-6-21,70.3,59.9,50.7,53.3,48.0,43.0,80,66,40,30.01,29.93,9,4,0,0.00
2013-6-22,73.2,59.5,51.3,54.4,50.3,45.6,85,73,39,29.97,29.88,11,4,0,0.00
2013-6-23,63.5,59.0,56.8,57.2,54.2,52.1,90,84,74,29.94,29.85,12,3,0,0.00
2013-6-24,59.7,58.7,57.7,56.8,55.9,55.1,91,90,88,29.96,29.83,11,2,0,0.00
2013-6-25,63.1,59.9,57.6,59.6,57.0,55.0,91,90,85,30.04,29.95,9,2,0,0.00
2013-6-26,80.1,66.2,58.8,61.5,58.4,55.9,92,78,51,30.07,29.97,16,4,0,0.00
2013-6-27,77.2,64.5,58.8,58.1,55.6,53.3,89,74,47,30.07,30.01,13,3,0,0.00
2013-6-28,79.3,63.7,58.5,55.5,54.5,52.8,88,73,41,30.04,29.92,12,4,0,0.00
2013-6-29,74.7,62.6,57.2,55.9,54.4,50.8,88,75,45,29.95,29.84,14,4,0,0.00
2013-6-30,73.2,61.8,56.3,56.0,54.3,51.3,89,77,47,29.89,29.80,12,3,0,0.00